sensor_id;sensor_type;location;lat;lon;timestamp;pressure;altitude;pressure_sealevel;temperature;humidity
71772;BME280;59606;52.138;5.424;2024-03-07T00:02:21;102731.00;;;4.14;100.00
71772;BME280;59606;52.138;5.424;2024-03-07T00:04:50;102730.13;;;4.10;100.00
71772;BME280;59606;52.138;5.424;2024-03-07T00:07:21;102731.84;;;4.07;100.00
71772;BME280;59606;52.138;5.424;2024-03-07T00:09:47;102728.38;;;4.05;100.00
71772;BME280;59606;52.138;5.424;2024-03-07T00:12:14;102742.13;;;4.04;100.00
71772;BME280;59606;52.138;5.424;2024-03-07T00:14:40;102735.28;;;4.03;100.00
71772;BME280;59606;52.138;5.424;2024-03-07T00:17:07;102734.38;;;4.00;100.00
71772;BME280;59606;52.138;5.424;2024-03-07T00:19:34;102729.22;;;3.99;100.00
71772;BME280;59606;52.138;5.424;2024-03-07T00:22:00;102731.78;;;3.99;100.00
71772;BME280;59606;52.138;5.424;2024-03-07T00:24:27;102731.81;;;3.97;100.00
71772;BME280;59606;52.138;5.424;2024-03-07T00:26:53;102733.50;;;3.95;100.00
71772;BME280;59606;52.138;5.424;2024-03-07T00:29:20;102731.81;;;3.97;100.00
71772;BME280;59606;52.138;5.424;2024-03-07T00:31:47;102725.81;;;4.00;100.00
71772;BME280;59606;52.138;5.424;2024-03-07T00:34:14;102730.09;;;3.99;100.00
71772;BME280;59606;52.138;5.424;2024-03-07T00:36:51;102729.22;;;3.99;100.00
71772;BME280;59606;52.138;5.424;2024-03-07T00:39:18;102734.38;;;4.00;100.00
71772;BME280;59606;52.138;5.424;2024-03-07T00:41:47;102729.22;;;3.97;100.00
71772;BME280;59606;52.138;5.424;2024-03-07T00:44:14;102732.66;;;3.98;100.00
71772;BME280;59606;52.138;5.424;2024-03-07T00:46:40;102737.81;;;3.96;100.00
71772;BME280;59606;52.138;5.424;2024-03-07T00:49:07;102737.81;;;3.93;100.00
71772;BME280;59606;52.138;5.424;2024-03-07T00:51:34;102736.06;;;3.88;100.00
71772;BME280;59606;52.138;5.424;2024-03-07T00:54:03;102735.22;;;3.87;100.00
71772;BME280;59606;52.138;5.424;2024-03-07T00:56:30;102735.19;;;3.83;100.00
71772;BME280;59606;52.138;5.424;2024-03-07T00:58:57;102734.31;;;3.77;100.00
71772;BME280;59606;52.138;5.424;2024-03-07T01:01:23;102732.59;;;3.76;100.00
71772;BME280;59606;52.138;5.424;2024-03-07T01:03:50;102728.28;;;3.74;100.00
71772;BME280;59606;52.138;5.424;2024-03-07T01:06:17;102730.84;;;3.69;100.00
71772;BME280;59606;52.138;5.424;2024-03-07T01:08:45;102727.38;;;3.67;100.00
71772;BME280;59606;52.138;5.424;2024-03-07T01:11:12;102729.97;;;3.67;100.00
71772;BME280;59606;52.138;5.424;2024-03-07T01:13:39;102725.69;;;3.66;100.00
71772;BME280;59606;52.138;5.424;2024-03-07T01:16:06;102722.22;;;3.64;100.00
71772;BME280;59606;52.138;5.424;2024-03-07T01:18:33;102713.63;;;3.65;100.00
71772;BME280;59606;52.138;5.424;2024-03-07T01:21:03;102719.66;;;3.66;100.00
71772;BME280;59606;52.138;5.424;2024-03-07T01:23:31;102711.94;;;3.66;100.00
71772;BME280;59606;52.138;5.424;2024-03-07T01:25:58;102715.38;;;3.66;100.00
71772;BME280;59606;52.138;5.424;2024-03-07T01:28:26;102713.63;;;3.68;100.00
71772;BME280;59606;52.138;5.424;2024-03-07T01:30:53;102723.97;;;3.67;100.00
71772;BME280;59606;52.138;5.424;2024-03-07T01:33:23;102711.91;;;3.64;100.00
71772;BME280;59606;52.138;5.424;2024-03-07T01:35:50;102712.78;;;3.63;100.00
71772;BME280;59606;52.138;5.424;2024-03-07T01:38:16;102725.63;;;3.62;100.00
71772;BME280;59606;52.138;5.424;2024-03-07T01:40:44;102716.19;;;3.59;100.00
71772;BME280;59606;52.138;5.424;2024-03-07T01:43:11;102717.91;;;3.57;100.00
71772;BME280;59606;52.138;5.424;2024-03-07T01:45:38;102709.28;;;3.53;100.00
71772;BME280;59606;52.138;5.424;2024-03-07T01:48:05;102716.16;;;3.50;100.00
71772;BME280;59606;52.138;5.424;2024-03-07T01:50:35;102710.97;;;3.47;100.00
71772;BME280;59606;52.138;5.424;2024-03-07T01:53:09;102709.25;;;3.44;100.00
71772;BME280;59606;52.138;5.424;2024-03-07T01:55:38;102706.69;;;3.43;100.00
71772;BME280;59606;52.138;5.424;2024-03-07T01:58:05;102708.34;;;3.38;100.00
71772;BME280;59606;52.138;5.424;2024-03-07T02:00:35;102705.75;;;3.35;100.00
71772;BME280;59606;52.138;5.424;2024-03-07T02:03:01;102705.75;;;3.33;100.00
71772;BME280;59606;52.138;5.424;2024-03-07T02:05:28;102704.88;;;3.31;100.00
71772;BME280;59606;52.138;5.424;2024-03-07T02:07:55;102700.59;;;3.30;100.00
71772;BME280;59606;52.138;5.424;2024-03-07T02:10:22;102705.75;;;3.30;100.00
71772;BME280;59606;52.138;5.424;2024-03-07T02:12:49;102704.03;;;3.34;100.00
71772;BME280;59606;52.138;5.424;2024-03-07T02:15:15;102706.63;;;3.35;100.00
71772;BME280;59606;52.138;5.424;2024-03-07T02:17:43;102705.78;;;3.38;100.00
71772;BME280;59606;52.138;5.424;2024-03-07T02:20:11;102704.06;;;3.41;100.00
71772;BME280;59606;52.138;5.424;2024-03-07T02:22:38;102698.94;;;3.40;100.00
71772;BME280;59606;52.138;5.424;2024-03-07T02:25:05;102699.78;;;3.39;100.00
71772;BME280;59606;52.138;5.424;2024-03-07T02:27:32;102697.19;;;3.37;100.00
71772;BME280;59606;52.138;5.424;2024-03-07T02:29:59;102697.22;;;3.39;100.00
71772;BME280;59606;52.138;5.424;2024-03-07T02:32:28;102698.03;;;3.38;100.00
71772;BME280;59606;52.138;5.424;2024-03-07T02:34:55;102698.88;;;3.35;100.00
71772;BME280;59606;52.138;5.424;2024-03-07T02:37:21;102699.75;;;3.34;100.00
71772;BME280;59606;52.138;5.424;2024-03-07T02:39:48;102699.72;;;3.31;100.00
71772;BME280;59606;52.138;5.424;2024-03-07T02:42:15;102696.28;;;3.30;100.00
71772;BME280;59606;52.138;5.424;2024-03-07T02:44:41;102697.13;;;3.28;100.00
71772;BME280;59606;52.138;5.424;2024-03-07T02:47:08;102697.13;;;3.23;100.00
71772;BME280;59606;52.138;5.424;2024-03-07T02:49:35;102685.94;;;3.20;100.00
71772;BME280;59606;52.138;5.424;2024-03-07T02:52:01;102686.78;;;3.17;100.00
71772;BME280;59606;52.138;5.424;2024-03-07T02:54:28;102686.75;;;3.14;100.00
71772;BME280;59606;52.138;5.424;2024-03-07T02:56:54;102683.31;;;3.11;100.00
71772;BME280;59606;52.138;5.424;2024-03-07T02:59:24;102686.75;;;3.10;100.00
71772;BME280;59606;52.138;5.424;2024-03-07T03:01:51;102674.72;;;3.05;100.00
71772;BME280;59606;52.138;5.424;2024-03-07T03:04:17;102675.53;;;3.01;100.00
71772;BME280;59606;52.138;5.424;2024-03-07T03:06:44;102672.94;;;2.97;100.00
71772;BME280;59606;52.138;5.424;2024-03-07T03:09:11;102678.94;;;2.96;100.00
71772;BME280;59606;52.138;5.424;2024-03-07T03:11:46;102670.34;;;2.94;100.00
71772;BME280;59606;52.138;5.424;2024-03-07T03:14:13;102672.94;;;2.95;100.00
71772;BME280;59606;52.138;5.424;2024-03-07T03:16:41;102667.75;;;2.94;100.00
71772;BME280;59606;52.138;5.424;2024-03-07T03:19:14;102662.63;;;2.95;100.00
71772;BME280;59606;52.138;5.424;2024-03-07T03:21:41;102657.47;;;2.94;100.00
71772;BME280;59606;52.138;5.424;2024-03-07T03:24:09;102660.00;;;2.91;100.00
71772;BME280;59606;52.138;5.424;2024-03-07T03:26:36;102654.00;;;2.89;100.00
71772;BME280;59606;52.138;5.424;2024-03-07T03:29:02;102655.69;;;2.87;100.00
71772;BME280;59606;52.138;5.424;2024-03-07T03:31:30;102655.72;;;2.85;100.00
71772;BME280;59606;52.138;5.424;2024-03-07T03:33:57;102650.53;;;2.82;100.00
71772;BME280;59606;52.138;5.424;2024-03-07T03:36:23;102647.91;;;2.77;100.00
71772;BME280;59606;52.138;5.424;2024-03-07T03:38:51;102649.63;;;2.75;100.00
71772;BME280;59606;52.138;5.424;2024-03-07T03:41:18;102645.34;;;2.76;100.00
71772;BME280;59606;52.138;5.424;2024-03-07T03:43:44;102644.47;;;2.74;100.00
71772;BME280;59606;52.138;5.424;2024-03-07T03:46:11;102649.59;;;2.71;100.00
71772;BME280;59606;52.138;5.424;2024-03-07T03:48:42;102648.72;;;2.69;100.00
71772;BME280;59606;52.138;5.424;2024-03-07T03:51:09;102646.97;;;2.68;100.00
71772;BME280;59606;52.138;5.424;2024-03-07T03:53:36;102657.28;;;2.66;100.00
71772;BME280;59606;52.138;5.424;2024-03-07T03:56:04;102651.25;;;2.63;100.00
71772;BME280;59606;52.138;5.424;2024-03-07T03:58:33;102655.50;;;2.60;100.00
71772;BME280;59606;52.138;5.424;2024-03-07T04:01:00;102659.81;;;2.60;100.00
71772;BME280;59606;52.138;5.424;2024-03-07T04:03:27;102649.50;;;2.60;100.00
71772;BME280;59606;52.138;5.424;2024-03-07T04:05:54;102652.09;;;2.58;100.00
71772;BME280;59606;52.138;5.424;2024-03-07T04:08:22;102651.19;;;2.56;100.00
71772;BME280;59606;52.138;5.424;2024-03-07T04:10:48;102646.88;;;2.54;100.00
71772;BME280;59606;52.138;5.424;2024-03-07T04:13:15;102652.88;;;2.51;100.00
71772;BME280;59606;52.138;5.424;2024-03-07T04:15:42;102646.88;;;2.49;100.00
71772;BME280;59606;52.138;5.424;2024-03-07T04:18:10;102652.88;;;2.48;100.00
71772;BME280;59606;52.138;5.424;2024-03-07T04:20:38;102651.13;;;2.46;100.00
71772;BME280;59606;52.138;5.424;2024-03-07T04:23:05;102644.22;;;2.45;100.00
71772;BME280;59606;52.138;5.424;2024-03-07T04:25:36;102640.78;;;2.41;100.00
71772;BME280;59606;52.138;5.424;2024-03-07T04:28:03;102637.31;;;2.38;100.00
71772;BME280;59606;52.138;5.424;2024-03-07T04:30:31;102644.19;;;2.35;100.00
71772;BME280;59606;52.138;5.424;2024-03-07T04:32:58;102642.44;;;2.33;100.00
71772;BME280;59606;52.138;5.424;2024-03-07T04:35:25;102646.69;;;2.29;100.00
71772;BME280;59606;52.138;5.424;2024-03-07T04:37:52;102647.56;;;2.28;100.00
71772;BME280;59606;52.138;5.424;2024-03-07T04:40:19;102650.06;;;2.24;100.00
71772;BME280;59606;52.138;5.424;2024-03-07T04:42:48;102650.91;;;2.21;100.00
71772;BME280;59606;52.138;5.424;2024-03-07T04:45:16;102651.75;;;2.19;100.00
71772;BME280;59606;52.138;5.424;2024-03-07T04:47:44;102650.88;;;2.17;100.00
71772;BME280;59606;52.138;5.424;2024-03-07T04:50:12;102647.41;;;2.15;100.00
71772;BME280;59606;52.138;5.424;2024-03-07T04:52:40;102642.25;;;2.13;100.00
71772;BME280;59606;52.138;5.424;2024-03-07T04:57:56;102651.66;;;2.08;100.00
71772;BME280;59606;52.138;5.424;2024-03-07T05:00:22;102641.34;;;2.05;100.00
71772;BME280;59606;52.138;5.424;2024-03-07T05:02:50;102643.88;;;2.03;100.00
71772;BME280;59606;52.138;5.424;2024-03-07T05:05:18;102643.88;;;2.03;100.00
71772;BME280;59606;52.138;5.424;2024-03-07T05:07:52;102642.13;;;1.99;100.00
71772;BME280;59606;52.138;5.424;2024-03-07T05:10:19;102646.38;;;1.97;100.00
71772;BME280;59606;52.138;5.424;2024-03-07T05:12:47;102643.00;;;1.98;100.00
71772;BME280;59606;52.138;5.424;2024-03-07T05:15:13;102644.69;;;1.96;100.00
71772;BME280;59606;52.138;5.424;2024-03-07T05:17:40;102642.09;;;1.95;100.00
71772;BME280;59606;52.138;5.424;2024-03-07T05:20:10;102648.91;;;1.93;100.00
71772;BME280;59606;52.138;5.424;2024-03-07T05:22:40;102644.59;;;1.90;100.00
71772;BME280;59606;52.138;5.424;2024-03-07T05:25:11;102645.44;;;1.87;100.00
71772;BME280;59606;52.138;5.424;2024-03-07T05:27:38;102649.72;;;1.85;100.00
71772;BME280;59606;52.138;5.424;2024-03-07T05:30:05;102650.53;;;1.84;100.00
71772;BME280;59606;52.138;5.424;2024-03-07T05:32:36;102650.53;;;1.83;100.00
71772;BME280;59606;52.138;5.424;2024-03-07T05:35:03;102647.97;;;1.81;100.00
71772;BME280;59606;52.138;5.424;2024-03-07T05:37:30;102649.63;;;1.79;100.00
71772;BME280;59606;52.138;5.424;2024-03-07T05:39:58;102651.31;;;1.77;100.00
71772;BME280;59606;52.138;5.424;2024-03-07T05:42:26;102648.75;;;1.76;100.00
71772;BME280;59606;52.138;5.424;2024-03-07T05:44:52;102647.03;;;1.75;100.00
71772;BME280;59606;52.138;5.424;2024-03-07T05:47:20;102646.13;;;1.71;100.00
71772;BME280;59606;52.138;5.424;2024-03-07T05:49:48;102646.09;;;1.70;100.00
71772;BME280;59606;52.138;5.424;2024-03-07T05:52:15;102649.53;;;1.69;100.00
71772;BME280;59606;52.138;5.424;2024-03-07T05:54:42;102647.78;;;1.68;100.00
71772;BME280;59606;52.138;5.424;2024-03-07T05:57:11;102651.22;;;1.67;100.00
71772;BME280;59606;52.138;5.424;2024-03-07T05:59:38;102649.50;;;1.65;100.00
71772;BME280;59606;52.138;5.424;2024-03-07T06:02:05;102645.22;;;1.64;100.00
71772;BME280;59606;52.138;5.424;2024-03-07T06:04:32;102646.06;;;1.65;100.00
71772;BME280;59606;52.138;5.424;2024-03-07T06:07:00;102650.34;;;1.64;100.00
71772;BME280;59606;52.138;5.424;2024-03-07T06:09:27;102655.50;;;1.64;100.00
71772;BME280;59606;52.138;5.424;2024-03-07T06:11:54;102655.44;;;1.63;100.00
71772;BME280;59606;52.138;5.424;2024-03-07T06:14:20;102651.16;;;1.62;100.00
71772;BME280;59606;52.138;5.424;2024-03-07T06:16:47;102656.31;;;1.62;100.00
71772;BME280;59606;52.138;5.424;2024-03-07T06:19:14;102651.16;;;1.62;100.00
71772;BME280;59606;52.138;5.424;2024-03-07T06:21:40;102658.03;;;1.63;100.00
71772;BME280;59606;52.138;5.424;2024-03-07T06:24:09;102652.84;;;1.60;100.00
71772;BME280;59606;52.138;5.424;2024-03-07T06:26:38;102657.16;;;1.62;100.00
71772;BME280;59606;52.138;5.424;2024-03-07T06:29:26;102651.16;;;1.63;100.00
71772;BME280;59606;52.138;5.424;2024-03-07T06:31:54;102658.06;;;1.66;100.00
71772;BME280;59606;52.138;5.424;2024-03-07T06:34:21;102658.06;;;1.66;100.00
71772;BME280;59606;52.138;5.424;2024-03-07T06:36:48;102657.19;;;1.67;100.00
71772;BME280;59606;52.138;5.424;2024-03-07T06:39:15;102658.94;;;1.70;100.00
71772;BME280;59606;52.138;5.424;2024-03-07T06:41:41;102662.41;;;1.72;100.00
71772;BME280;59606;52.138;5.424;2024-03-07T06:44:09;102664.13;;;1.73;100.00
71772;BME280;59606;52.138;5.424;2024-03-07T06:46:36;102658.16;;;1.75;100.00
71772;BME280;59606;52.138;5.424;2024-03-07T06:49:03;102659.91;;;1.81;100.00
71772;BME280;59606;52.138;5.424;2024-03-07T06:51:32;102660.81;;;1.83;100.00
71772;BME280;59606;52.138;5.424;2024-03-07T06:53:59;102662.56;;;1.85;100.00
71772;BME280;59606;52.138;5.424;2024-03-07T06:56:26;102659.16;;;1.88;100.00
71772;BME280;59606;52.138;5.424;2024-03-07T06:58:53;102656.63;;;1.93;100.00
71772;BME280;59606;52.138;5.424;2024-03-07T07:01:20;102652.38;;;1.95;100.00
71772;BME280;59606;52.138;5.424;2024-03-07T07:03:47;102654.09;;;1.97;100.00
71772;BME280;59606;52.138;5.424;2024-03-07T07:06:15;102649.03;;;2.02;100.00
71772;BME280;59606;52.138;5.424;2024-03-07T07:08:41;102654.19;;;2.06;100.00
71772;BME280;59606;52.138;5.424;2024-03-07T07:11:08;102651.66;;;2.11;100.00
71772;BME280;59606;52.138;5.424;2024-03-07T07:13:38;102651.69;;;2.14;100.00
71772;BME280;59606;52.138;5.424;2024-03-07T07:16:05;102648.31;;;2.18;100.00
71772;BME280;59606;52.138;5.424;2024-03-07T07:18:32;102649.22;;;2.23;100.00
71772;BME280;59606;52.138;5.424;2024-03-07T07:20:59;102649.25;;;2.26;100.00
71772;BME280;59606;52.138;5.424;2024-03-07T07:23:27;102644.13;;;2.31;100.00
71772;BME280;59606;52.138;5.424;2024-03-07T07:26:04;102653.63;;;2.38;100.00
71772;BME280;59606;52.138;5.424;2024-03-07T07:28:32;102651.09;;;2.43;100.00
71772;BME280;59606;52.138;5.424;2024-03-07T07:31:04;102650.25;;;2.47;100.00
71772;BME280;59606;52.138;5.424;2024-03-07T07:33:31;102647.72;;;2.51;100.00
71772;BME280;59606;52.138;5.424;2024-03-07T07:35:58;102645.19;;;2.57;100.00
71772;BME280;59606;52.138;5.424;2024-03-07T07:38:26;102637.50;;;2.59;100.00
71772;BME280;59606;52.138;5.424;2024-03-07T07:40:53;102640.97;;;2.66;100.00
71772;BME280;59606;52.138;5.424;2024-03-07T07:43:24;102640.19;;;2.73;100.00
71772;BME280;59606;52.138;5.424;2024-03-07T07:46:03;102637.63;;;2.80;100.00
71772;BME280;59606;52.138;5.424;2024-03-07T07:48:30;102630.81;;;2.87;100.00
71772;BME280;59606;52.138;5.424;2024-03-07T07:50:57;102630.84;;;2.92;100.00
71772;BME280;59606;52.138;5.424;2024-03-07T07:53:25;102624.00;;;2.97;100.00
71772;BME280;59606;52.138;5.424;2024-03-07T07:55:52;102622.34;;;3.02;100.00
71772;BME280;59606;52.138;5.424;2024-03-07T07:58:19;102624.06;;;3.07;100.00
71772;BME280;59606;52.138;5.424;2024-03-07T08:00:46;102622.38;;;3.14;100.00
71772;BME280;59606;52.138;5.424;2024-03-07T08:03:16;102632.72;;;3.23;100.00
71772;BME280;59606;52.138;5.424;2024-03-07T08:05:44;102631.91;;;3.30;100.00
71772;BME280;59606;52.138;5.424;2024-03-07T08:08:12;102636.22;;;3.38;100.00
71772;BME280;59606;52.138;5.424;2024-03-07T08:10:44;102635.38;;;3.45;100.00
71772;BME280;59606;52.138;5.424;2024-03-07T08:13:16;102627.69;;;3.51;100.00
71772;BME280;59606;52.138;5.424;2024-03-07T08:15:43;102630.28;;;3.59;100.00
71772;BME280;59606;52.138;5.424;2024-03-07T08:18:11;102638.06;;;3.66;100.00
71772;BME280;59606;52.138;5.424;2024-03-07T08:20:39;102635.50;;;3.72;100.00
71772;BME280;59606;52.138;5.424;2024-03-07T08:23:12;102638.06;;;3.78;100.00
71772;BME280;59606;52.138;5.424;2024-03-07T08:25:39;102642.38;;;3.87;100.00
71772;BME280;59606;52.138;5.424;2024-03-07T08:28:09;102641.56;;;3.93;100.00
71772;BME280;59606;52.138;5.424;2024-03-07T08:30:38;102646.72;;;3.97;100.00
71772;BME280;59606;52.138;5.424;2024-03-07T08:33:07;102636.41;;;4.04;100.00
71772;BME280;59606;52.138;5.424;2024-03-07T08:35:34;102633.81;;;4.11;100.00
71772;BME280;59606;52.138;5.424;2024-03-07T08:38:04;102630.41;;;4.17;100.00
71772;BME280;59606;52.138;5.424;2024-03-07T08:40:38;102630.41;;;4.24;100.00
71772;BME280;59606;52.138;5.424;2024-03-07T08:43:06;102632.13;;;4.32;100.00
71772;BME280;59606;52.138;5.424;2024-03-07T08:45:37;102626.97;;;4.39;100.00
71772;BME280;59606;52.138;5.424;2024-03-07T08:48:05;102625.22;;;4.44;100.00
71772;BME280;59606;52.138;5.424;2024-03-07T08:50:32;102621.78;;;4.52;100.00
71772;BME280;59606;52.138;5.424;2024-03-07T08:53:02;102625.22;;;4.61;100.00
71772;BME280;59606;52.138;5.424;2024-03-07T08:55:29;102617.47;;;4.70;100.00
71772;BME280;59606;52.138;5.424;2024-03-07T08:58:04;102621.75;;;4.78;100.00
71772;BME280;59606;52.138;5.424;2024-03-07T09:00:41;102613.13;;;4.85;100.00
71772;BME280;59606;52.138;5.424;2024-03-07T09:03:09;102610.53;;;4.89;100.00
71772;BME280;59606;52.138;5.424;2024-03-07T09:05:39;102601.06;;;4.94;100.00
71772;BME280;59606;52.138;5.424;2024-03-07T09:08:07;102609.63;;;5.06;100.00
71772;BME280;59606;52.138;5.424;2024-03-07T09:10:36;102604.44;;;5.13;100.00
71772;BME280;59606;52.138;5.424;2024-03-07T09:13:09;102600.97;;;5.20;100.00
71772;BME280;59606;52.138;5.424;2024-03-07T09:15:37;102597.47;;;5.28;100.00
71772;BME280;59606;52.138;5.424;2024-03-07T09:18:09;102597.44;;;5.35;100.00
71772;BME280;59606;52.138;5.424;2024-03-07T09:20:38;102607.72;;;5.43;100.00
71772;BME280;59606;52.138;5.424;2024-03-07T09:23:07;102596.50;;;5.49;100.00
71772;BME280;59606;52.138;5.424;2024-03-07T09:25:36;102605.09;;;5.55;100.00
71772;BME280;59606;52.138;5.424;2024-03-07T09:28:04;102596.44;;;5.62;100.00
71772;BME280;59606;52.138;5.424;2024-03-07T09:30:32;102586.91;;;5.69;100.00
71772;BME280;59606;52.138;5.424;2024-03-07T09:33:01;102595.47;;;5.79;100.00
71772;BME280;59606;52.138;5.424;2024-03-07T09:35:28;102596.28;;;5.85;100.00
71772;BME280;59606;52.138;5.424;2024-03-07T09:37:57;102593.72;;;5.87;100.00
71772;BME280;59606;52.138;5.424;2024-03-07T09:40:25;102591.97;;;5.90;100.00
71772;BME280;59606;52.138;5.424;2024-03-07T09:42:55;102591.06;;;5.96;100.00
71772;BME280;59606;52.138;5.424;2024-03-07T09:45:28;102589.31;;;6.01;100.00
71772;BME280;59606;52.138;5.424;2024-03-07T09:47:57;102581.50;;;6.10;100.00
71772;BME280;59606;52.138;5.424;2024-03-07T09:50:26;102590.06;;;6.16;100.00
71772;BME280;59606;52.138;5.424;2024-03-07T09:52:58;102583.97;;;6.20;100.00
71772;BME280;59606;52.138;5.424;2024-03-07T09:55:25;102574.47;;;6.25;100.00
71772;BME280;59606;52.138;5.424;2024-03-07T09:57:58;102571.84;;;6.26;100.00
71772;BME280;59606;52.138;5.424;2024-03-07T10:00:26;102579.59;;;6.31;100.00
71772;BME280;59606;52.138;5.424;2024-03-07T10:03:08;102581.25;;;6.36;100.00
71772;BME280;59606;52.138;5.424;2024-03-07T10:05:37;102570.88;;;6.41;100.00
71772;BME280;59606;52.138;5.424;2024-03-07T10:08:05;102568.22;;;6.46;100.00
71772;BME280;59606;52.138;5.424;2024-03-07T10:10:36;102566.47;;;6.51;100.00
71772;BME280;59606;52.138;5.424;2024-03-07T10:13:07;102567.25;;;6.56;100.00
71772;BME280;59606;52.138;5.424;2024-03-07T10:15:36;102560.28;;;6.63;100.00
71772;BME280;59606;52.138;5.424;2024-03-07T10:18:09;102565.41;;;6.69;100.00
71772;BME280;59606;52.138;5.424;2024-03-07T10:20:42;102559.25;;;6.79;100.00
71772;BME280;59606;52.138;5.424;2024-03-07T10:23:11;102562.56;;;6.90;99.94
71772;BME280;59606;52.138;5.424;2024-03-07T10:25:40;102565.19;;;6.87;98.43
71772;BME280;59606;52.138;5.424;2024-03-07T10:28:09;102560.78;;;6.94;98.58
71772;BME280;59606;52.138;5.424;2024-03-07T10:30:42;102554.59;;;7.04;98.33
71772;BME280;59606;52.138;5.424;2024-03-07T10:33:27;102554.50;;;7.15;97.34
71772;BME280;59606;52.138;5.424;2024-03-07T10:35:56;102550.94;;;7.20;96.78
71772;BME280;59606;52.138;5.424;2024-03-07T10:38:23;102541.44;;;7.21;94.89
71772;BME280;59606;52.138;5.424;2024-03-07T10:40:55;102544.88;;;7.24;94.81
71772;BME280;59606;52.138;5.424;2024-03-07T10:43:25;102534.38;;;7.30;94.19
71772;BME280;59606;52.138;5.424;2024-03-07T10:45:55;102538.69;;;7.33;93.40
71772;BME280;59606;52.138;5.424;2024-03-07T10:48:29;102539.50;;;7.38;92.86
71772;BME280;59606;52.138;5.424;2024-03-07T10:51:29;102538.53;;;7.45;92.56
71772;BME280;59606;52.138;5.424;2024-03-07T10:54:11;102539.38;;;7.46;91.82
71772;BME280;59606;52.138;5.424;2024-03-07T10:56:57;102530.66;;;7.51;91.39
71772;BME280;59606;52.138;5.424;2024-03-07T10:59:33;102537.50;;;7.54;91.03
71772;BME280;59606;52.138;5.424;2024-03-07T11:04:47;102521.81;;;7.63;90.72
71772;BME280;59606;52.138;5.424;2024-03-07T11:07:16;102523.50;;;7.66;91.05
71772;BME280;59606;52.138;5.424;2024-03-07T11:09:43;102522.50;;;7.74;90.80
71772;BME280;59606;52.138;5.424;2024-03-07T11:12:13;102512.13;;;7.76;90.29
71772;BME280;59606;52.138;5.424;2024-03-07T11:14:42;102522.41;;;7.82;90.29
71772;BME280;59606;52.138;5.424;2024-03-07T11:17:12;102512.81;;;7.84;90.83
71772;BME280;59606;52.138;5.424;2024-03-07T11:19:40;102511.06;;;7.86;89.99
71772;BME280;59606;52.138;5.424;2024-03-07T11:22:06;102501.56;;;7.87;89.97
71772;BME280;59606;52.138;5.424;2024-03-07T11:24:42;102495.41;;;7.92;90.46
71772;BME280;59606;52.138;5.424;2024-03-07T11:27:10;102496.91;;;8.04;90.17
71772;BME280;59606;52.138;5.424;2024-03-07T11:32:14;102503.66;;;8.16;88.29
71772;BME280;59606;52.138;5.424;2024-03-07T11:34:42;102490.63;;;8.19;88.50
71772;BME280;59606;52.138;5.424;2024-03-07T11:37:09;102498.56;;;8.10;88.97
71772;BME280;59606;52.138;5.424;2024-03-07T11:39:45;102501.41;;;7.96;88.83
71772;BME280;59606;52.138;5.424;2024-03-07T11:42:20;102499.63;;;7.98;89.43
71772;BME280;59606;52.138;5.424;2024-03-07T11:44:49;102496.81;;;8.10;89.42
71772;BME280;59606;52.138;5.424;2024-03-07T11:47:18;102494.97;;;8.17;88.51
71772;BME280;59606;52.138;5.424;2024-03-07T11:49:45;102493.16;;;8.22;88.24
71772;BME280;59606;52.138;5.424;2024-03-07T11:52:15;102490.53;;;8.23;88.23
71772;BME280;59606;52.138;5.424;2024-03-07T11:54:43;102485.22;;;8.28;87.98
71772;BME280;59606;52.138;5.424;2024-03-07T11:59:40;102482.78;;;8.22;86.61
71772;BME280;59606;52.138;5.424;2024-03-07T12:02:15;102472.25;;;8.30;86.99
71772;BME280;59606;52.138;5.424;2024-03-07T12:04:42;102480.69;;;8.42;87.16
71772;BME280;59606;52.138;5.424;2024-03-07T12:07:08;102463.31;;;8.44;86.58
71772;BME280;59606;52.138;5.424;2024-03-07T12:09:37;102461.78;;;8.33;86.11
71772;BME280;59606;52.138;5.424;2024-03-07T12:12:07;102461.97;;;8.23;85.97
71772;BME280;59606;52.138;5.424;2024-03-07T12:14:35;102460.16;;;8.29;86.01
71772;BME280;59606;52.138;5.424;2024-03-07T12:17:02;102447.06;;;8.33;86.31
71772;BME280;59606;52.138;5.424;2024-03-07T12:19:32;102447.72;;;8.46;86.74
71772;BME280;59606;52.138;5.424;2024-03-07T12:22:02;102444.78;;;8.63;86.16
71772;BME280;59606;52.138;5.424;2024-03-07T12:24:29;102436.69;;;8.75;85.01
71772;BME280;59606;52.138;5.424;2024-03-07T12:27:11;102431.41;;;8.80;85.01
71772;BME280;59606;52.138;5.424;2024-03-07T12:29:39;102422.53;;;8.90;84.36
71772;BME280;59606;52.138;5.424;2024-03-07T12:32:07;102417.34;;;8.90;84.22
71772;BME280;59606;52.138;5.424;2024-03-07T12:34:43;102409.56;;;8.88;83.79
71772;BME280;59606;52.138;5.424;2024-03-07T12:37:13;102402.63;;;8.89;83.19
71772;BME280;59606;52.138;5.424;2024-03-07T12:39:44;102399.09;;;8.91;82.40
71772;BME280;59606;52.138;5.424;2024-03-07T12:42:15;102396.34;;;8.97;83.46
71772;BME280;59606;52.138;5.424;2024-03-07T12:44:43;102384.78;;;9.11;84.17
71772;BME280;59606;52.138;5.424;2024-03-07T12:47:14;102388.22;;;9.11;82.84
71772;BME280;59606;52.138;5.424;2024-03-07T12:49:42;102383.88;;;9.12;84.34
71772;BME280;59606;52.138;5.424;2024-03-07T12:52:09;102388.84;;;9.23;83.80
71772;BME280;59606;52.138;5.424;2024-03-07T12:54:36;102387.94;;;9.24;84.51
71772;BME280;59606;52.138;5.424;2024-03-07T12:57:07;102382.66;;;9.27;83.31
71772;BME280;59606;52.138;5.424;2024-03-07T12:59:35;102379.16;;;9.29;83.68
71772;BME280;59606;52.138;5.424;2024-03-07T13:02:11;102371.41;;;9.26;83.03
71772;BME280;59606;52.138;5.424;2024-03-07T13:04:38;102374.16;;;9.20;83.30
71772;BME280;59606;52.138;5.424;2024-03-07T13:07:09;102375.78;;;9.26;84.78
71772;BME280;59606;52.138;5.424;2024-03-07T13:09:36;102362.88;;;9.21;83.06
71772;BME280;59606;52.138;5.424;2024-03-07T13:12:04;102362.66;;;9.29;82.70